createdAt,value
2019-04-28T00:01:32.042Z,8.80
2019-04-28T00:04:01.338Z,8.90
2019-04-28T00:06:31.777Z,8.80
2019-04-28T00:09:01.759Z,8.90
2019-04-28T00:11:31.735Z,8.90
2019-04-28T00:14:01.867Z,8.80
2019-04-28T00:16:31.294Z,8.80
2019-04-28T00:19:01.075Z,8.80
2019-04-28T00:21:45.073Z,8.80
2019-04-28T00:24:31.313Z,8.80
2019-04-28T00:27:02.765Z,8.80
2019-04-28T00:29:38.573Z,8.90
2019-04-28T00:32:02.866Z,8.80
2019-04-28T00:34:32.342Z,8.80
2019-04-28T00:37:06.934Z,8.90
2019-04-28T00:39:35.902Z,9.00
2019-04-28T00:42:05.096Z,9.10
2019-04-28T00:44:34.230Z,9.10
2019-04-28T00:47:03.255Z,9.10
2019-04-28T00:49:47.462Z,9.10
2019-04-28T00:52:18.293Z,9.20
2019-04-28T00:54:48.283Z,9.20
2019-04-28T00:57:17.939Z,9.10
2019-04-28T00:59:55.165Z,9.10
2019-04-28T01:02:34.503Z,9.10
2019-04-28T01:05:03.559Z,9.20
2019-04-28T01:07:33.017Z,9.20
2019-04-28T01:10:02.498Z,9.10
2019-04-28T01:12:31.534Z,9.10
2019-04-28T01:15:04.533Z,9.10
2019-04-28T01:17:49.670Z,9.10
2019-04-28T01:20:20.211Z,9.10
2019-04-28T01:22:49.717Z,9.10
2019-04-28T01:25:20.311Z,9.10
2019-04-28T01:27:56.747Z,9.10
2019-04-28T01:30:44.122Z,9.10
2019-04-28T01:33:23.255Z,9.10
2019-04-28T01:35:52.291Z,9.00
2019-04-28T01:38:21.239Z,9.00
2019-04-28T01:40:50.199Z,9.10
2019-04-28T01:43:19.787Z,9.10
2019-04-28T01:45:50.224Z,9.00
2019-04-28T01:48:19.940Z,9.10
2019-04-28T01:50:49.990Z,9.10
2019-04-28T01:53:19.940Z,9.10
2019-04-28T01:55:49.654Z,9.10
2019-04-28T01:58:20.451Z,9.10
2019-04-28T02:00:50.504Z,9.10
2019-04-28T02:03:20.574Z,9.10
2019-04-28T02:05:50.287Z,9.10
2019-04-28T02:08:20.242Z,9.10
2019-04-28T02:10:50.141Z,9.10
2019-04-28T02:13:19.876Z,9.10
2019-04-28T02:15:50.093Z,9.10
2019-04-28T02:18:20.044Z,9.10
2019-04-28T02:20:54.760Z,9.10
2019-04-28T02:23:27.360Z,9.10
2019-04-28T02:25:56.240Z,9.20
2019-04-28T02:28:25.288Z,9.10
2019-04-28T02:30:54.613Z,9.10
2019-04-28T02:33:23.920Z,9.10
2019-04-28T02:35:53.134Z,9.10
2019-04-28T02:38:22.350Z,9.10
2019-04-28T02:40:54.325Z,9.10
2019-04-28T02:43:23.228Z,9.10
2019-04-28T02:45:53.487Z,9.10
2019-04-28T02:48:25.993Z,9.20
2019-04-28T02:51:01.323Z,9.10
2019-04-28T02:53:33.729Z,9.20
2019-04-28T02:56:02.997Z,9.10
2019-04-28T02:58:31.965Z,9.10
2019-04-28T03:01:11.183Z,9.10
2019-04-28T03:03:31.685Z,9.20
2019-04-28T03:06:01.652Z,9.20
2019-04-28T03:08:30.890Z,9.20
2019-04-28T03:11:00.929Z,9.20
2019-04-28T03:13:31.226Z,9.10
2019-04-28T03:16:01.531Z,9.20
2019-04-28T03:18:31.764Z,9.10
2019-04-28T03:21:03.864Z,9.20
2019-04-28T03:23:31.815Z,9.20
2019-04-28T03:26:06.650Z,9.20
2019-04-28T03:28:54.745Z,9.20
2019-04-28T03:32:16.525Z,9.20
2019-04-28T03:34:23.722Z,9.20
2019-04-28T03:36:52.951Z,9.20
2019-04-28T03:39:21.906Z,9.20
2019-04-28T03:41:50.860Z,9.10
2019-04-28T03:44:20.845Z,9.10
2019-04-28T03:46:53.085Z,9.10
2019-04-28T03:49:32.491Z,9.20
2019-04-28T03:52:02.604Z,9.20
2019-04-28T03:54:31.642Z,9.20
2019-04-28T03:57:01.407Z,9.20
2019-04-28T03:59:31.134Z,9.20
2019-04-28T04:02:03.237Z,9.20
2019-04-28T04:04:32.271Z,9.20
2019-04-28T04:07:01.709Z,9.10
2019-04-28T04:09:51.197Z,9.20
2019-04-28T04:12:43.274Z,9.10
2019-04-28T04:15:41.262Z,9.10
2019-04-28T04:18:14.840Z,9.00
2019-04-28T04:20:43.798Z,9.00
2019-04-28T04:23:12.839Z,9.00
2019-04-28T04:25:42.282Z,9.00
2019-04-28T04:28:11.334Z,9.00
2019-04-28T04:30:41.125Z,9.00
2019-04-28T04:33:11.297Z,9.10
2019-04-28T04:35:41.224Z,9.10
2019-04-28T04:38:11.283Z,9.10
2019-04-28T04:40:41.204Z,9.00
2019-04-28T04:43:11.422Z,9.00
2019-04-28T04:45:40.954Z,9.10
2019-04-28T04:48:11.634Z,9.10
2019-04-28T04:50:41.289Z,9.10
2019-04-28T04:53:11.104Z,9.00
2019-04-28T04:55:41.018Z,9.00
2019-04-28T04:58:10.775Z,9.10
2019-04-28T05:01:01.899Z,9.10
2019-04-28T05:03:33.517Z,9.10
2019-04-28T05:06:04.210Z,9.10
2019-04-28T05:08:33.259Z,9.10
2019-04-28T05:11:02.638Z,9.10
2019-04-28T05:13:31.598Z,9.10
2019-04-28T05:16:00.666Z,9.20
2019-04-28T05:18:29.787Z,9.20
2019-04-28T05:20:59.449Z,9.20
2019-04-28T05:23:41.942Z,9.20
2019-04-28T05:26:11.403Z,9.20
2019-04-28T05:28:43.976Z,9.30
2019-04-28T05:31:19.529Z,9.30
2019-04-28T05:33:42.140Z,9.40
2019-04-28T05:36:12.123Z,9.40
2019-04-28T05:38:42.154Z,9.50
2019-04-28T05:41:11.391Z,9.50
2019-04-28T05:43:40.580Z,9.50
2019-04-28T05:46:10.640Z,9.50
2019-04-28T05:48:49.447Z,9.50
2019-04-28T05:51:20.159Z,9.50
2019-04-28T05:53:55.043Z,9.60
2019-04-28T05:56:29.657Z,9.60
2019-04-28T05:59:09.988Z,9.70
2019-04-28T06:01:56.865Z,9.70
2019-04-28T06:04:30.275Z,9.70
2019-04-28T06:07:04.879Z,9.80
2019-04-28T06:09:44.055Z,9.90
2019-04-28T06:12:14.191Z,9.90
2019-04-28T06:14:43.168Z,10.00
2019-04-28T06:17:12.471Z,10.00
2019-04-28T06:19:41.657Z,10.10
2019-04-28T06:22:10.700Z,10.20
2019-04-28T06:24:39.736Z,10.20
2019-04-28T06:27:08.692Z,10.20
2019-04-28T06:29:37.716Z,10.30
2019-04-28T06:32:06.872Z,10.30
2019-04-28T06:34:35.780Z,10.40
2019-04-28T06:37:04.856Z,10.50
2019-04-28T06:39:33.744Z,10.60
2019-04-28T06:42:02.721Z,10.60
2019-04-28T06:44:31.761Z,10.60
2019-04-28T06:47:00.728Z,10.70
2019-04-28T06:49:29.708Z,10.70
2019-04-28T06:51:58.739Z,10.80
2019-04-28T06:54:27.844Z,10.90
2019-04-28T06:56:56.846Z,10.90
2019-04-28T06:59:25.832Z,10.90
2019-04-28T07:01:54.900Z,10.90
2019-04-28T07:04:23.969Z,11.00
2019-04-28T07:06:52.853Z,11.00
2019-04-28T07:09:22.054Z,11.10
2019-04-28T07:11:51.016Z,11.30
2019-04-28T07:14:20.057Z,11.50
2019-04-28T07:16:49.101Z,11.80
2019-04-28T07:19:18.296Z,11.80
2019-04-28T07:21:56.761Z,11.80
2019-04-28T07:24:25.725Z,11.80
2019-04-28T07:26:54.776Z,11.80
2019-04-28T07:29:23.860Z,11.70
2019-04-28T07:31:53.025Z,11.80
2019-04-28T07:34:22.164Z,11.70
2019-04-28T07:36:51.233Z,11.60
2019-04-28T07:39:20.221Z,11.60
2019-04-28T07:41:49.129Z,11.40
2019-04-28T07:44:18.121Z,11.30
2019-04-28T07:46:47.086Z,11.30
2019-04-28T07:49:16.129Z,11.50
2019-04-28T07:52:07.157Z,11.60
2019-04-28T07:54:36.225Z,11.50
2019-04-28T07:57:05.353Z,11.50
2019-04-28T07:59:34.581Z,11.70
2019-04-28T08:02:03.713Z,11.70
2019-04-28T08:04:32.737Z,11.80
2019-04-28T08:07:01.785Z,11.80
2019-04-28T08:09:30.837Z,12.00
2019-04-28T08:11:59.825Z,12.20
2019-04-28T08:14:28.882Z,12.10
2019-04-28T08:16:57.926Z,11.80
2019-04-28T08:19:27.002Z,11.80
2019-04-28T08:21:56.034Z,12.10
2019-04-28T08:24:25.790Z,12.30
2019-04-28T08:26:54.909Z,12.20
2019-04-28T08:29:23.994Z,12.30
2019-04-28T08:32:02.939Z,12.40
2019-04-28T08:34:32.046Z,12.60
2019-04-28T08:37:01.010Z,12.70
2019-04-28T08:39:29.906Z,12.80
2019-04-28T08:41:59.127Z,13.00
2019-04-28T08:44:28.226Z,12.70
2019-04-28T08:46:57.218Z,12.60
2019-04-28T08:49:26.199Z,12.90
2019-04-28T08:51:55.151Z,13.00
2019-04-28T08:54:24.210Z,12.70
2019-04-28T08:56:53.251Z,12.70
2019-04-28T08:59:22.282Z,12.80
2019-04-28T09:01:51.334Z,13.00
2019-04-28T09:04:20.598Z,13.40
2019-04-28T09:06:49.706Z,13.60
2019-04-28T09:09:20.711Z,13.60
2019-04-28T09:11:49.751Z,13.60
2019-04-28T09:14:18.935Z,13.50
2019-04-28T09:16:48.431Z,13.50
2019-04-28T09:19:17.454Z,13.30
2019-04-28T09:21:46.423Z,13.30
2019-04-28T09:24:15.667Z,13.30
2019-04-28T09:26:44.687Z,13.30
2019-04-28T09:29:13.723Z,13.30
2019-04-28T09:31:43.130Z,13.30
2019-04-28T09:34:12.151Z,13.40
2019-04-28T09:36:41.197Z,13.70
2019-04-28T09:39:11.831Z,13.80
2019-04-28T09:41:44.727Z,14.00
2019-04-28T09:44:18.208Z,14.00
2019-04-28T09:46:47.744Z,14.10
2019-04-28T09:49:17.351Z,14.20
2019-04-28T09:51:46.323Z,14.10
2019-04-28T09:54:15.600Z,14.20
2019-04-28T09:56:56.021Z,14.20
2019-04-28T09:59:15.293Z,14.20
2019-04-28T10:01:44.348Z,14.20
2019-04-28T10:04:13.472Z,14.30
2019-04-28T10:06:42.547Z,14.20
2019-04-28T10:09:11.596Z,14.20
2019-04-28T10:11:40.512Z,14.20
2019-04-28T10:14:09.629Z,14.10
2019-04-28T10:16:38.692Z,14.10
2019-04-28T10:19:07.740Z,13.80
2019-04-28T10:21:36.788Z,13.70
2019-04-28T10:24:05.856Z,13.80
2019-04-28T10:26:34.824Z,13.90
2019-04-28T10:29:03.792Z,14.20
2019-04-28T10:31:32.952Z,14.20
2019-04-28T10:34:03.624Z,14.50
2019-04-28T10:36:34.540Z,14.20
2019-04-28T10:39:23.123Z,14.20
2019-04-28T10:41:52.357Z,14.10
2019-04-28T10:44:21.989Z,14.10
2019-04-28T10:46:51.241Z,13.80
2019-04-28T10:49:20.981Z,13.80
2019-04-28T10:51:59.078Z,13.90
2019-04-28T10:54:20.642Z,14.00
2019-04-28T10:56:49.701Z,14.10
2019-04-28T10:59:18.980Z,13.80
2019-04-28T11:01:48.054Z,14.00
2019-04-28T11:04:34.757Z,14.00
2019-04-28T11:07:04.085Z,13.60
2019-04-28T11:09:38.346Z,13.40
2019-04-28T11:12:10.153Z,13.40
2019-04-28T11:14:39.238Z,13.30
2019-04-28T11:17:08.362Z,13.20
2019-04-28T11:19:37.533Z,12.90
2019-04-28T11:22:06.611Z,12.80
2019-04-28T11:24:35.636Z,12.90
2019-04-28T11:27:06.241Z,12.90
2019-04-28T11:29:35.205Z,12.50
2019-04-28T11:32:04.561Z,12.40
2019-04-28T11:34:40.329Z,12.10
2019-04-28T11:37:09.310Z,11.80
2019-04-28T11:39:39.813Z,11.70
2019-04-28T11:42:09.160Z,11.80
2019-04-28T11:44:38.190Z,11.90
2019-04-28T11:47:09.690Z,12.00
2019-04-28T11:49:39.066Z,12.10
2019-04-28T11:52:08.224Z,12.40
2019-04-28T11:54:37.294Z,12.40
2019-04-28T11:57:06.374Z,12.50
2019-04-28T11:59:35.408Z,12.80
2019-04-28T12:02:05.346Z,12.90
2019-04-28T12:04:34.396Z,13.00
2019-04-28T12:07:03.462Z,13.20
2019-04-28T12:10:03.765Z,13.50
2019-04-28T12:12:40.718Z,13.80
2019-04-28T12:15:29.530Z,14.10
2019-04-28T12:18:29.327Z,14.30
2019-04-28T12:20:58.372Z,14.80
2019-04-28T12:23:27.531Z,14.90
2019-04-28T12:25:56.815Z,15.10
2019-04-28T12:28:25.774Z,15.40
2019-04-28T12:30:54.828Z,15.50
2019-04-28T12:33:23.799Z,15.50
2019-04-28T12:35:52.822Z,15.40
2019-04-28T12:38:21.888Z,15.40
2019-04-28T12:40:50.887Z,15.40
2019-04-28T12:43:19.943Z,15.50
2019-04-28T12:45:49.295Z,15.60
2019-04-28T12:48:18.347Z,15.60
2019-04-28T12:50:50.691Z,15.60
2019-04-28T12:53:19.739Z,15.60
2019-04-28T12:55:49.059Z,15.60
2019-04-28T12:58:18.134Z,15.70
2019-04-28T13:01:05.091Z,15.80
2019-04-28T13:03:42.083Z,15.70
2019-04-28T13:06:13.427Z,15.30
2019-04-28T13:08:42.419Z,15.00
2019-04-28T13:11:11.475Z,14.80
2019-04-28T13:13:40.521Z,14.70
2019-04-28T13:16:09.559Z,14.40
2019-04-28T13:18:38.687Z,14.20
2019-04-28T13:21:07.727Z,14.10
2019-04-28T13:23:36.946Z,14.30
2019-04-28T13:26:05.907Z,14.10
2019-04-28T13:28:34.838Z,14.10
2019-04-28T13:31:03.929Z,14.10
2019-04-28T13:33:33.305Z,14.00
2019-04-28T13:36:14.102Z,14.00
2019-04-28T13:38:34.505Z,14.20
2019-04-28T13:41:03.542Z,14.10
2019-04-28T13:43:32.571Z,14.20
2019-04-28T13:46:01.717Z,14.20
2019-04-28T13:48:30.701Z,14.20
2019-04-28T13:50:59.664Z,14.30
2019-04-28T13:53:28.716Z,14.40
2019-04-28T13:56:03.159Z,14.40
2019-04-28T13:58:47.012Z,14.30
2019-04-28T14:01:35.160Z,14.40
2019-04-28T14:04:23.287Z,14.40
2019-04-28T14:06:55.424Z,14.40
2019-04-28T14:09:24.749Z,14.50
2019-04-28T14:11:53.845Z,14.60
2019-04-28T14:14:22.949Z,14.80
2019-04-28T14:16:52.045Z,14.90
2019-04-28T14:19:21.142Z,15.00
2019-04-28T14:21:50.025Z,15.00
2019-04-28T14:24:19.209Z,14.90
2019-04-28T14:26:48.809Z,14.90
2019-04-28T14:29:18.187Z,15.00
2019-04-28T14:31:47.265Z,15.00
2019-04-28T14:34:16.241Z,15.10
2019-04-28T14:36:45.310Z,15.10
2019-04-28T14:39:14.785Z,15.20
2019-04-28T14:41:44.881Z,15.00
2019-04-28T14:44:13.942Z,14.80
2019-04-28T14:46:43.138Z,15.00
2019-04-28T14:49:12.151Z,15.10
2019-04-28T14:51:42.329Z,15.20
2019-04-28T14:54:11.438Z,15.40
2019-04-28T14:56:40.498Z,15.40
2019-04-28T14:59:09.799Z,15.50
2019-04-28T15:01:57.855Z,15.50
2019-04-28T15:04:48.704Z,15.60
2019-04-28T15:07:36.768Z,15.70
2019-04-28T15:10:25.010Z,15.60
2019-04-28T15:12:54.152Z,15.70
2019-04-28T15:15:24.081Z,15.90
2019-04-28T15:17:53.118Z,15.80
2019-04-28T15:20:22.752Z,15.70
2019-04-28T15:22:51.818Z,15.70
2019-04-28T15:25:20.979Z,15.80
2019-04-28T15:27:49.944Z,15.90
2019-04-28T15:30:18.981Z,16.00
2019-04-28T15:32:48.670Z,15.90
2019-04-28T15:35:17.774Z,15.80
2019-04-28T15:37:46.882Z,15.60
2019-04-28T15:40:15.986Z,15.70
2019-04-28T15:42:44.914Z,15.80
2019-04-28T15:45:14.337Z,15.80
2019-04-28T15:47:43.414Z,15.90
2019-04-28T15:50:12.823Z,16.00
2019-04-28T15:52:41.859Z,15.90
2019-04-28T15:55:13.862Z,15.80
2019-04-28T15:57:42.921Z,15.90
2019-04-28T16:00:13.712Z,16.00
2019-04-28T16:02:42.775Z,15.90
2019-04-28T16:05:11.819Z,15.90
2019-04-28T16:07:40.763Z,15.90
2019-04-28T16:10:09.919Z,15.90
2019-04-28T16:12:38.878Z,15.70
2019-04-28T16:15:08.559Z,15.60
2019-04-28T16:17:37.476Z,15.60
2019-04-28T16:20:06.541Z,15.50
2019-04-28T16:22:35.683Z,15.40
2019-04-28T16:25:04.799Z,15.40
2019-04-28T16:27:33.771Z,15.40
2019-04-28T16:30:02.747Z,15.30
2019-04-28T16:32:31.759Z,15.20
2019-04-28T16:35:00.651Z,15.10
2019-04-28T16:37:38.712Z,15.20
2019-04-28T16:40:00.381Z,15.20
2019-04-28T16:43:02.163Z,15.20
2019-04-28T16:45:31.201Z,15.20
2019-04-28T16:48:00.072Z,15.00
2019-04-28T16:50:29.131Z,15.00
2019-04-28T16:52:58.424Z,14.80
2019-04-28T16:55:34.660Z,14.80
2019-04-28T16:58:31.704Z,14.80
2019-04-28T17:01:08.693Z,14.60
2019-04-28T17:03:38.225Z,14.70
2019-04-28T17:06:07.474Z,14.70
2019-04-28T17:08:36.504Z,14.60
2019-04-28T17:11:05.849Z,14.50
2019-04-28T17:13:34.872Z,14.40
2019-04-28T17:16:03.929Z,14.20
2019-04-28T17:18:32.817Z,14.10
2019-04-28T17:21:01.910Z,14.10
2019-04-28T17:23:33.817Z,13.70
2019-04-28T17:26:02.858Z,13.70
2019-04-28T17:28:32.214Z,13.80
2019-04-28T17:31:01.357Z,13.70
2019-04-28T17:33:30.698Z,13.50
2019-04-28T17:35:59.823Z,13.40
2019-04-28T17:38:28.990Z,13.40
2019-04-28T17:40:59.405Z,13.30
2019-04-28T17:43:28.477Z,13.10
2019-04-28T17:45:57.607Z,13.10
2019-04-28T17:48:31.422Z,13.10
2019-04-28T17:51:00.490Z,13.20
2019-04-28T17:53:29.542Z,13.20
2019-04-28T17:55:58.662Z,13.10
2019-04-28T17:58:27.758Z,13.10
2019-04-28T18:01:21.902Z,13.20
2019-04-28T18:04:15.044Z,13.20
2019-04-28T18:06:46.770Z,13.10
2019-04-28T18:09:16.790Z,13.10
2019-04-28T18:11:45.842Z,12.90
2019-04-28T18:14:14.974Z,12.90
2019-04-28T18:17:05.886Z,12.90
2019-04-28T18:19:35.490Z,13.00
2019-04-28T18:22:04.515Z,13.10
2019-04-28T18:24:33.822Z,13.00
2019-04-28T18:27:02.798Z,13.00
2019-04-28T18:29:31.904Z,13.00
2019-04-28T18:32:28.950Z,13.00
2019-04-28T18:35:03.574Z,13.00
2019-04-28T18:37:51.611Z,12.90
2019-04-28T18:40:28.481Z,12.80
2019-04-28T18:43:10.323Z,12.80
2019-04-28T18:45:39.384Z,12.80
2019-04-28T18:48:08.367Z,12.70
2019-04-28T18:50:37.339Z,12.70
2019-04-28T18:53:06.394Z,12.70
2019-04-28T18:55:35.475Z,12.70
2019-04-28T18:58:04.447Z,12.70
2019-04-28T19:00:35.582Z,12.70
2019-04-28T19:03:04.667Z,12.60
2019-04-28T19:05:35.827Z,12.60
2019-04-28T19:08:32.879Z,12.60
2019-04-28T19:11:24.018Z,12.60
2019-04-28T19:14:07.307Z,12.40
2019-04-28T19:16:52.603Z,12.30
2019-04-28T19:19:22.143Z,12.20
2019-04-28T19:21:55.275Z,12.10
2019-04-28T19:24:24.871Z,12.10
2019-04-28T19:26:53.919Z,12.10
2019-04-28T19:29:23.004Z,12.00
2019-04-28T19:31:52.020Z,11.90
2019-04-28T19:34:21.112Z,11.90
2019-04-28T19:36:50.184Z,11.90
2019-04-28T19:39:19.224Z,11.80
2019-04-28T19:41:48.287Z,11.80
2019-04-28T19:44:18.084Z,11.80
2019-04-28T19:46:48.140Z,11.70
2019-04-28T19:49:17.196Z,11.60
2019-04-28T19:51:46.304Z,11.50
2019-04-28T19:54:16.760Z,11.50
2019-04-28T19:56:51.320Z,11.40
2019-04-28T19:59:27.800Z,11.30
2019-04-28T20:01:57.190Z,11.20
2019-04-28T20:04:26.164Z,11.20
2019-04-28T20:06:55.236Z,11.10
2019-04-28T20:09:24.600Z,11.00
2019-04-28T20:11:53.657Z,11.00
2019-04-28T20:14:22.697Z,11.00
2019-04-28T20:16:51.625Z,10.90
2019-04-28T20:19:20.581Z,10.90
2019-04-28T20:21:49.501Z,10.70
2019-04-28T20:24:19.553Z,10.70
2019-04-28T20:26:48.738Z,10.60
2019-04-28T20:29:17.715Z,10.60
2019-04-28T20:31:47.120Z,10.50
2019-04-28T20:34:16.078Z,10.40
2019-04-28T20:37:10.054Z,10.30
2019-04-28T20:39:39.521Z,10.30
2019-04-28T20:42:26.162Z,10.30
2019-04-28T20:44:56.046Z,10.30
2019-04-28T20:47:24.927Z,10.20
2019-04-28T20:49:54.119Z,10.30
2019-04-28T20:52:23.150Z,10.20
2019-04-28T20:54:52.122Z,10.20
2019-04-28T20:57:21.103Z,10.20
2019-04-28T20:59:50.078Z,10.20
2019-04-28T21:02:19.066Z,10.20
2019-04-28T21:04:48.046Z,10.10
2019-04-28T21:07:17.103Z,10.10
2019-04-28T21:09:46.015Z,10.10
2019-04-28T21:12:14.955Z,10.00
2019-04-28T21:14:43.919Z,10.10
2019-04-28T21:17:12.931Z,10.00
2019-04-28T21:19:41.908Z,9.90
2019-04-28T21:22:11.299Z,9.90
2019-04-28T21:24:40.615Z,9.80
2019-04-28T21:27:09.635Z,9.70
2019-04-28T21:29:38.611Z,9.80
2019-04-28T21:32:07.568Z,9.80
2019-04-28T21:34:36.563Z,9.70
2019-04-28T21:37:05.599Z,9.70
2019-04-28T21:39:34.579Z,9.60
2019-04-28T21:42:05.202Z,9.50
2019-04-28T21:44:54.691Z,9.50
2019-04-28T21:47:29.699Z,9.50
2019-04-28T21:49:58.911Z,9.50
2019-04-28T21:52:27.963Z,9.30
2019-04-28T21:54:57.013Z,9.30
2019-04-28T21:57:25.984Z,9.30
2019-04-28T21:59:54.943Z,9.30
2019-04-28T22:02:23.983Z,9.20
2019-04-28T22:04:52.876Z,9.20
2019-04-28T22:07:21.931Z,9.10
2019-04-28T22:09:50.865Z,9.00
2019-04-28T22:12:20.164Z,8.80
2019-04-28T22:14:49.192Z,8.70
2019-04-28T22:17:18.252Z,8.50
2019-04-28T22:19:47.308Z,8.50
2019-04-28T22:22:16.384Z,8.50
2019-04-28T22:24:55.065Z,8.60
2019-04-28T22:27:36.960Z,8.60
2019-04-28T22:30:08.627Z,8.70
2019-04-28T22:32:37.680Z,8.60
2019-04-28T22:35:08.025Z,8.70
2019-04-28T22:37:36.892Z,8.70
2019-04-28T22:40:06.980Z,8.70
2019-04-28T22:42:35.872Z,8.70
2019-04-28T22:45:05.828Z,8.70
2019-04-28T22:47:34.861Z,8.70
2019-04-28T22:50:07.102Z,8.70
2019-04-28T22:52:35.120Z,8.70
2019-04-28T22:55:12.668Z,8.50
2019-04-28T22:58:03.738Z,8.50
2019-04-28T23:01:07.138Z,8.50
2019-04-28T23:03:48.389Z,8.60
2019-04-28T23:06:17.701Z,8.60
2019-04-28T23:08:46.697Z,8.50
2019-04-28T23:11:16.014Z,8.40
2019-04-28T23:13:45.439Z,8.40
2019-04-28T23:16:14.489Z,8.30
2019-04-28T23:18:43.873Z,8.30
2019-04-28T23:21:27.573Z,8.20
2019-04-28T23:23:56.537Z,8.20
2019-04-28T23:26:25.485Z,8.10
2019-04-28T23:28:54.601Z,8.10
2019-04-28T23:31:23.697Z,8.10
2019-04-28T23:33:52.578Z,8.10
2019-04-28T23:36:21.477Z,8.10
2019-04-28T23:38:50.370Z,8.10
2019-04-28T23:41:37.113Z,8.10
2019-04-28T23:44:06.151Z,8.00
2019-04-28T23:46:53.059Z,8.00
2019-04-28T23:49:22.045Z,8.00
2019-04-28T23:51:59.769Z,8.00
2019-04-28T23:54:28.677Z,8.00
2019-04-28T23:56:57.537Z,7.90
2019-04-28T23:59:26.561Z,7.90
